createdAt,value
2019-03-15T00:01:39.316Z,93.16
2019-03-15T00:04:07.989Z,93.72
2019-03-15T00:06:36.656Z,94.67
2019-03-15T00:09:08.191Z,95.63
2019-03-15T00:11:36.857Z,96.56
2019-03-15T00:14:05.862Z,97.57
2019-03-15T00:16:34.503Z,98.81
2019-03-15T00:19:03.173Z,99.81
2019-03-15T00:21:31.743Z,100.00
2019-03-15T00:24:00.307Z,100.00
2019-03-15T00:26:29.011Z,100.00
2019-03-15T00:28:57.627Z,100.00
2019-03-15T00:31:26.240Z,100.00
2019-03-15T00:33:54.777Z,100.00
2019-03-15T00:36:23.423Z,100.00
2019-03-15T00:38:52.066Z,100.00
2019-03-15T00:41:20.763Z,100.00
2019-03-15T00:43:49.866Z,100.00
2019-03-15T00:46:18.624Z,100.00
2019-03-15T00:48:47.338Z,100.00
2019-03-15T00:51:15.974Z,100.00
2019-03-15T00:53:44.615Z,100.00
2019-03-15T00:56:13.494Z,100.00
2019-03-15T00:58:41.992Z,100.00
2019-03-15T01:01:10.641Z,100.00
2019-03-15T01:03:39.322Z,100.00
2019-03-15T01:06:07.822Z,100.00
2019-03-15T01:08:36.318Z,98.51
2019-03-15T01:11:05.138Z,98.62
2019-03-15T01:13:33.770Z,97.97
2019-03-15T01:16:02.260Z,97.21
2019-03-15T01:18:30.787Z,96.18
2019-03-15T01:20:59.435Z,95.58
2019-03-15T01:23:28.060Z,95.57
2019-03-15T01:25:56.811Z,96.10
2019-03-15T01:28:25.552Z,96.51
2019-03-15T01:30:55.068Z,96.33
2019-03-15T01:33:23.687Z,96.96
2019-03-15T01:35:52.321Z,95.13
2019-03-15T01:38:20.956Z,94.97
2019-03-15T01:40:49.507Z,95.05
2019-03-15T01:43:18.066Z,95.46
2019-03-15T01:45:46.871Z,95.85
2019-03-15T01:48:16.931Z,96.46
2019-03-15T01:50:45.564Z,96.79
2019-03-15T01:53:14.055Z,97.33
2019-03-15T01:55:42.762Z,97.82
2019-03-15T01:58:11.377Z,99.65
2019-03-15T02:00:40.910Z,100.00
2019-03-15T02:03:09.605Z,100.00
2019-03-15T02:05:38.315Z,100.00
2019-03-15T02:08:06.816Z,100.00
2019-03-15T02:10:35.491Z,100.00
2019-03-15T02:13:04.136Z,100.00
2019-03-15T02:15:32.702Z,100.00
2019-03-15T02:18:01.239Z,100.00
2019-03-15T02:20:29.873Z,100.00
2019-03-15T02:22:58.595Z,100.00
2019-03-15T02:25:27.574Z,100.00
2019-03-15T02:27:56.195Z,100.00
2019-03-15T02:30:24.845Z,100.00
2019-03-15T02:32:53.512Z,100.00
2019-03-15T02:35:22.103Z,100.00
2019-03-15T02:37:50.578Z,100.00
2019-03-15T02:40:19.514Z,100.00
2019-03-15T02:42:48.173Z,100.00
2019-03-15T02:45:16.754Z,100.00
2019-03-15T02:47:46.304Z,100.00
2019-03-15T02:50:15.204Z,100.00
2019-03-15T02:52:43.830Z,100.00
2019-03-15T02:55:12.526Z,100.00
2019-03-15T02:57:41.147Z,100.00
2019-03-15T03:00:10.193Z,100.00
2019-03-15T03:02:38.791Z,100.00
2019-03-15T03:05:09.500Z,100.00
2019-03-15T03:07:38.136Z,100.00
2019-03-15T03:10:08.771Z,100.00
2019-03-15T03:12:41.220Z,100.00
2019-03-15T03:15:10.114Z,100.00
2019-03-15T03:17:40.237Z,100.00
2019-03-15T03:20:09.660Z,100.00
2019-03-15T03:22:38.157Z,100.00
2019-03-15T03:25:07.098Z,100.00
2019-03-15T03:27:35.660Z,100.00
2019-03-15T03:30:05.381Z,100.00
2019-03-15T03:32:34.029Z,100.00
2019-03-15T03:35:09.479Z,100.00
2019-03-15T03:37:37.240Z,100.00
2019-03-15T03:40:07.460Z,100.00
2019-03-15T03:42:36.137Z,100.00
2019-03-15T03:45:05.272Z,100.00
2019-03-15T03:47:33.774Z,100.00
2019-03-15T03:50:02.459Z,100.00
2019-03-15T03:52:31.100Z,100.00
2019-03-15T03:54:59.939Z,100.00
2019-03-15T03:57:28.481Z,100.00
2019-03-15T03:59:57.184Z,100.00
2019-03-15T04:02:26.028Z,100.00
2019-03-15T04:04:54.782Z,100.00
2019-03-15T04:07:23.713Z,100.00
2019-03-15T04:09:52.361Z,100.00
2019-03-15T04:12:21.249Z,100.00
2019-03-15T04:14:49.754Z,100.00
2019-03-15T04:17:18.318Z,100.00
2019-03-15T04:19:47.089Z,100.00
2019-03-15T04:22:15.754Z,100.00
2019-03-15T04:24:44.252Z,100.00
2019-03-15T04:27:12.800Z,100.00
2019-03-15T04:29:41.433Z,100.00
2019-03-15T04:32:10.074Z,100.00
2019-03-15T04:34:38.809Z,100.00
2019-03-15T04:37:09.319Z,100.00
2019-03-15T04:39:37.673Z,100.00
2019-03-15T04:42:06.378Z,100.00
2019-03-15T04:44:34.885Z,100.00
2019-03-15T04:47:03.514Z,100.00
2019-03-15T04:49:32.144Z,100.00
2019-03-15T04:52:00.650Z,100.00
2019-03-15T04:54:29.285Z,100.00
2019-03-15T04:56:58.204Z,100.00
2019-03-15T04:59:26.707Z,100.00
2019-03-15T05:01:55.218Z,100.00
2019-03-15T05:04:24.057Z,100.00
2019-03-15T05:06:52.717Z,100.00
2019-03-15T05:09:21.222Z,100.00
2019-03-15T05:11:50.015Z,100.00
2019-03-15T05:14:19.018Z,93.91
2019-03-15T05:16:47.651Z,91.35
2019-03-15T05:19:16.200Z,89.30
2019-03-15T05:21:44.699Z,88.72
2019-03-15T05:24:13.333Z,86.03
2019-03-15T05:26:42.138Z,83.06
2019-03-15T05:29:10.767Z,79.78
2019-03-15T05:31:39.401Z,78.17
2019-03-15T05:34:07.948Z,78.30
2019-03-15T05:36:36.509Z,77.90
2019-03-15T05:39:06.541Z,76.41
2019-03-15T05:41:35.213Z,77.22
2019-03-15T05:44:03.779Z,75.19
2019-03-15T05:46:32.272Z,72.09
2019-03-15T05:49:01.219Z,70.70
2019-03-15T05:51:29.870Z,67.34
2019-03-15T05:53:58.356Z,65.02
2019-03-15T05:56:26.892Z,63.06
2019-03-15T05:58:55.526Z,61.86
2019-03-15T06:01:24.172Z,60.93
2019-03-15T06:03:52.932Z,59.17
2019-03-15T06:06:21.592Z,61.92
2019-03-15T06:08:50.064Z,61.81
2019-03-15T06:11:18.770Z,58.91
2019-03-15T06:13:47.407Z,57.79
2019-03-15T06:16:16.053Z,54.62
2019-03-15T06:18:44.575Z,55.05
2019-03-15T06:21:13.078Z,52.86
2019-03-15T06:23:41.756Z,57.33
2019-03-15T06:26:10.394Z,54.67
2019-03-15T06:28:38.900Z,55.59
2019-03-15T06:31:07.433Z,53.13
2019-03-15T06:33:36.072Z,53.96
2019-03-15T06:36:04.915Z,52.71
2019-03-15T06:38:33.779Z,54.20
2019-03-15T06:41:02.388Z,53.12
2019-03-15T06:43:31.028Z,51.32
2019-03-15T06:45:59.613Z,50.36
2019-03-15T06:48:28.551Z,50.03
2019-03-15T06:50:57.216Z,51.81
2019-03-15T06:53:25.780Z,53.35
2019-03-15T06:55:54.276Z,55.73
2019-03-15T06:58:23.031Z,56.40
2019-03-15T07:00:54.544Z,55.72
2019-03-15T07:03:21.979Z,54.12
2019-03-15T07:05:50.557Z,53.62
2019-03-15T07:08:19.201Z,53.13
2019-03-15T07:10:47.872Z,54.91
2019-03-15T07:13:16.398Z,53.15
2019-03-15T07:15:44.968Z,53.58
2019-03-15T07:18:13.685Z,53.72
2019-03-15T07:20:49.471Z,53.91
2019-03-15T07:23:18.124Z,55.46
2019-03-15T07:25:46.785Z,54.96
2019-03-15T07:28:15.292Z,54.00
2019-03-15T07:30:43.862Z,54.76
2019-03-15T07:33:12.567Z,53.47
2019-03-15T07:35:41.221Z,54.52
2019-03-15T07:38:09.724Z,53.83
2019-03-15T07:40:38.273Z,53.74
2019-03-15T07:43:06.919Z,54.34
2019-03-15T07:45:35.555Z,52.09
2019-03-15T07:48:04.242Z,52.62
2019-03-15T07:50:32.743Z,53.14
2019-03-15T07:53:01.380Z,54.75
2019-03-15T07:55:30.069Z,53.56
2019-03-15T07:57:58.815Z,53.93
2019-03-15T08:00:27.450Z,55.21
2019-03-15T08:02:56.181Z,54.81
2019-03-15T08:05:24.752Z,54.25
2019-03-15T08:07:53.394Z,54.82
2019-03-15T08:10:22.224Z,55.63
2019-03-15T08:12:50.724Z,54.96
2019-03-15T08:15:19.438Z,55.11
2019-03-15T08:17:48.107Z,55.47
2019-03-15T08:20:16.756Z,53.52
2019-03-15T08:22:45.328Z,54.70
2019-03-15T08:25:14.127Z,55.73
2019-03-15T08:27:42.758Z,51.97
2019-03-15T08:30:16.113Z,51.11
2019-03-15T08:32:44.649Z,49.98
2019-03-15T08:35:13.746Z,47.40
2019-03-15T08:37:42.512Z,49.14
2019-03-15T08:40:12.572Z,48.20
2019-03-15T08:42:41.085Z,50.26
2019-03-15T08:45:19.694Z,50.05
2019-03-15T08:47:48.332Z,49.64
2019-03-15T08:50:24.263Z,50.26
2019-03-15T08:52:53.854Z,50.03
2019-03-15T08:55:21.569Z,44.64
2019-03-15T08:57:50.060Z,46.72
2019-03-15T09:00:19.346Z,48.40
2019-03-15T09:02:47.981Z,48.09
2019-03-15T09:05:17.233Z,49.90
2019-03-15T09:07:45.759Z,49.71
2019-03-15T09:10:23.894Z,50.68
2019-03-15T09:12:46.286Z,51.43
2019-03-15T09:15:15.702Z,51.89
2019-03-15T09:17:44.203Z,52.02
2019-03-15T09:20:15.226Z,50.94
2019-03-15T09:22:43.928Z,51.09
2019-03-15T09:25:20.266Z,50.23
2019-03-15T09:27:47.290Z,49.12
2019-03-15T09:30:24.784Z,49.34
2019-03-15T09:32:47.296Z,50.67
2019-03-15T09:35:15.994Z,49.50
2019-03-15T09:37:47.209Z,50.97
2019-03-15T09:40:16.371Z,51.69
2019-03-15T09:42:45.102Z,52.76
2019-03-15T09:45:15.357Z,49.55
2019-03-15T09:47:43.917Z,50.38
2019-03-15T09:50:23.154Z,51.34
2019-03-15T09:52:44.246Z,50.22
2019-03-15T09:55:15.729Z,48.24
2019-03-15T09:57:44.300Z,48.62
2019-03-15T10:00:17.072Z,47.44
2019-03-15T10:02:45.900Z,49.27
2019-03-15T10:05:14.737Z,49.33
2019-03-15T10:07:44.176Z,49.96
2019-03-15T10:10:19.352Z,49.06
2019-03-15T10:12:48.294Z,48.11
2019-03-15T10:15:17.614Z,47.23
2019-03-15T10:17:46.542Z,47.10
2019-03-15T10:20:15.619Z,46.63
2019-03-15T10:22:44.170Z,47.05
2019-03-15T10:25:14.219Z,45.10
2019-03-15T10:27:43.034Z,46.04
2019-03-15T10:30:16.531Z,43.57
2019-03-15T10:32:45.165Z,44.99
2019-03-15T10:35:14.094Z,45.80
2019-03-15T10:37:42.723Z,46.48
2019-03-15T10:40:14.665Z,45.45
2019-03-15T10:42:43.188Z,44.90
2019-03-15T10:45:11.818Z,44.55
2019-03-15T10:47:42.414Z,44.58
2019-03-15T10:50:15.921Z,45.75
2019-03-15T10:52:44.545Z,45.61
2019-03-15T10:55:13.270Z,43.28
2019-03-15T10:57:41.893Z,42.99
2019-03-15T11:00:14.212Z,43.02
2019-03-15T11:02:42.839Z,43.09
2019-03-15T11:05:11.604Z,43.21
2019-03-15T11:07:40.102Z,42.48
2019-03-15T11:10:10.799Z,41.21
2019-03-15T11:12:39.481Z,36.96
2019-03-15T11:15:13.334Z,35.95
2019-03-15T11:17:41.922Z,34.80
2019-03-15T11:20:11.456Z,35.54
2019-03-15T11:22:40.263Z,36.41
2019-03-15T11:25:10.396Z,36.47
2019-03-15T11:27:39.426Z,37.16
2019-03-15T11:30:12.909Z,34.50
2019-03-15T11:32:41.405Z,34.71
2019-03-15T11:35:10.670Z,35.10
2019-03-15T11:37:39.312Z,34.90
2019-03-15T11:40:18.548Z,36.59
2019-03-15T11:42:45.692Z,37.49
2019-03-15T11:45:21.415Z,36.95
2019-03-15T11:48:02.889Z,36.43
2019-03-15T11:50:21.400Z,35.56
2019-03-15T11:52:50.026Z,36.18
2019-03-15T11:55:18.524Z,35.44
2019-03-15T11:57:47.151Z,34.84
2019-03-15T12:00:19.568Z,35.78
2019-03-15T12:02:48.066Z,35.82
2019-03-15T12:05:16.911Z,36.29
2019-03-15T12:07:45.507Z,36.07
2019-03-15T12:10:17.577Z,36.80
2019-03-15T12:12:46.285Z,35.46
2019-03-15T12:15:19.360Z,34.39
2019-03-15T12:17:48.047Z,34.69
2019-03-15T12:20:16.676Z,33.53
2019-03-15T12:22:45.353Z,33.70
2019-03-15T12:25:13.987Z,31.77
2019-03-15T12:27:42.624Z,33.45
2019-03-15T12:30:18.372Z,33.14
2019-03-15T12:32:47.084Z,33.61
2019-03-15T12:35:16.122Z,33.32
2019-03-15T12:37:44.885Z,33.35
2019-03-15T12:40:14.918Z,33.70
2019-03-15T12:42:43.548Z,32.65
2019-03-15T12:45:13.121Z,32.73
2019-03-15T12:47:41.752Z,32.23
2019-03-15T12:50:11.987Z,31.79
2019-03-15T12:52:47.590Z,31.11
2019-03-15T12:55:12.103Z,30.69
2019-03-15T12:57:40.784Z,30.99
2019-03-15T13:00:21.350Z,30.79
2019-03-15T13:02:50.072Z,30.10
2019-03-15T13:05:18.710Z,29.98
2019-03-15T13:07:47.346Z,30.65
2019-03-15T13:10:20.983Z,31.09
2019-03-15T13:12:49.703Z,30.92
2019-03-15T13:15:18.756Z,30.78
2019-03-15T13:17:47.369Z,29.86
2019-03-15T13:20:16.888Z,29.52
2019-03-15T13:22:45.517Z,28.86
2019-03-15T13:25:14.205Z,29.79
2019-03-15T13:27:42.990Z,29.55
2019-03-15T13:30:15.766Z,28.57
2019-03-15T13:32:44.329Z,29.07
2019-03-15T13:35:13.699Z,29.42
2019-03-15T13:37:43.317Z,29.35
2019-03-15T13:40:19.200Z,29.11
2019-03-15T13:42:47.840Z,29.06
2019-03-15T13:45:17.074Z,29.51
2019-03-15T13:47:45.717Z,29.52
2019-03-15T13:50:19.327Z,29.43
2019-03-15T13:52:48.030Z,30.62
2019-03-15T13:55:16.869Z,30.80
2019-03-15T13:57:45.431Z,30.70
2019-03-15T14:00:18.618Z,31.14
2019-03-15T14:02:47.305Z,30.62
2019-03-15T14:05:15.946Z,31.40
2019-03-15T14:07:44.576Z,31.88
2019-03-15T14:10:15.392Z,31.98
2019-03-15T14:12:43.953Z,32.42
2019-03-15T14:15:14.647Z,32.44
2019-03-15T14:17:43.524Z,33.30
2019-03-15T14:20:12.851Z,33.57
2019-03-15T14:22:41.616Z,34.01
2019-03-15T14:25:26.954Z,33.92
2019-03-15T14:27:55.586Z,34.19
2019-03-15T14:30:24.216Z,34.01
2019-03-15T14:32:52.820Z,34.02
2019-03-15T14:35:21.326Z,34.38
2019-03-15T14:37:49.986Z,34.28
2019-03-15T14:40:18.636Z,34.57
2019-03-15T14:42:47.407Z,34.84
2019-03-15T14:45:16.543Z,35.32
2019-03-15T14:47:45.329Z,36.01
2019-03-15T14:50:14.870Z,36.40
2019-03-15T14:52:43.645Z,37.23
2019-03-15T14:55:13.379Z,37.26
2019-03-15T14:57:52.108Z,37.22
2019-03-15T15:00:16.996Z,37.23
2019-03-15T15:02:45.685Z,37.66
2019-03-15T15:05:14.311Z,36.99
2019-03-15T15:07:42.941Z,37.14
2019-03-15T15:10:18.314Z,37.26
2019-03-15T15:12:46.958Z,37.48
2019-03-15T15:15:17.331Z,37.07
2019-03-15T15:17:46.005Z,37.69
2019-03-15T15:20:14.637Z,36.94
2019-03-15T15:22:43.308Z,37.35
2019-03-15T15:25:17.759Z,37.17
2019-03-15T15:27:46.256Z,37.42
2019-03-15T15:30:18.377Z,37.71
2019-03-15T15:32:47.108Z,38.19
2019-03-15T15:35:15.843Z,37.81
2019-03-15T15:37:44.433Z,38.63
2019-03-15T15:40:15.372Z,38.84
2019-03-15T15:42:44.007Z,38.57
2019-03-15T15:45:13.146Z,39.00
2019-03-15T15:47:41.936Z,39.35
2019-03-15T15:50:12.048Z,39.39
2019-03-15T15:52:40.682Z,39.97
2019-03-15T15:55:10.957Z,40.19
2019-03-15T15:57:39.517Z,41.30
2019-03-15T16:00:16.835Z,41.77
2019-03-15T16:02:45.458Z,41.68
2019-03-15T16:05:14.300Z,42.09
2019-03-15T16:07:43.081Z,42.62
2019-03-15T16:10:13.016Z,43.21
2019-03-15T16:12:42.137Z,43.15
2019-03-15T16:15:16.344Z,43.62
2019-03-15T16:17:45.891Z,43.82
2019-03-15T16:20:15.205Z,44.10
2019-03-15T16:22:43.795Z,44.26
2019-03-15T16:25:12.933Z,44.87
2019-03-15T16:27:41.575Z,45.08
2019-03-15T16:30:22.414Z,45.76
2019-03-15T16:32:50.983Z,45.90
2019-03-15T16:35:19.553Z,46.41
2019-03-15T16:37:48.222Z,46.85
2019-03-15T16:40:16.963Z,47.52
2019-03-15T16:42:45.521Z,47.78
2019-03-15T16:45:29.308Z,48.21
2019-03-15T16:47:57.911Z,48.29
2019-03-15T16:50:26.540Z,48.56
2019-03-15T16:52:55.179Z,48.85
2019-03-15T16:55:23.809Z,49.35
2019-03-15T16:57:52.301Z,49.45
2019-03-15T17:00:20.922Z,49.92
2019-03-15T17:02:49.606Z,49.91
2019-03-15T17:05:18.337Z,50.06
2019-03-15T17:07:47.110Z,50.33
2019-03-15T17:10:16.928Z,51.35
2019-03-15T17:12:45.754Z,52.00
2019-03-15T17:15:16.864Z,53.20
2019-03-15T17:17:45.370Z,54.01
2019-03-15T17:20:14.507Z,54.54
2019-03-15T17:22:43.169Z,54.99
2019-03-15T17:25:12.510Z,55.74
2019-03-15T17:27:41.177Z,57.08
2019-03-15T17:30:14.354Z,57.75
2019-03-15T17:32:43.184Z,58.83
2019-03-15T17:35:18.928Z,59.12
2019-03-15T17:37:47.497Z,59.26
2019-03-15T17:40:17.125Z,59.53
2019-03-15T17:42:45.793Z,59.27
2019-03-15T17:45:14.896Z,58.68
2019-03-15T17:47:43.363Z,57.16
2019-03-15T17:50:20.531Z,56.28
2019-03-15T17:52:49.159Z,56.43
2019-03-15T17:55:18.296Z,56.13
2019-03-15T17:57:46.833Z,55.97
2019-03-15T18:00:34.368Z,55.87
2019-03-15T18:03:03.041Z,56.03
2019-03-15T18:05:31.770Z,56.12
2019-03-15T18:08:00.458Z,56.26
2019-03-15T18:10:32.487Z,56.49
2019-03-15T18:12:59.489Z,56.96
2019-03-15T18:15:28.050Z,57.07
2019-03-15T18:17:59.814Z,57.15
2019-03-15T18:20:27.357Z,57.32
2019-03-15T18:22:56.116Z,57.33
2019-03-15T18:25:24.656Z,57.61
2019-03-15T18:27:53.686Z,58.17
2019-03-15T18:30:22.420Z,58.70
2019-03-15T18:32:51.018Z,59.25
2019-03-15T18:35:32.601Z,59.65
2019-03-15T18:37:49.933Z,60.09
2019-03-15T18:40:21.815Z,60.10
2019-03-15T18:42:50.467Z,60.15
2019-03-15T18:45:19.193Z,60.48
2019-03-15T18:47:47.895Z,60.53
2019-03-15T18:50:21.339Z,60.61
2019-03-15T18:52:50.180Z,60.37
2019-03-15T18:55:19.057Z,60.42
2019-03-15T18:57:47.611Z,60.39
2019-03-15T19:00:21.161Z,60.48
2019-03-15T19:02:50.137Z,60.30
2019-03-15T19:05:18.757Z,60.43
2019-03-15T19:07:47.382Z,60.49
2019-03-15T19:10:16.711Z,60.64
2019-03-15T19:12:45.426Z,60.58
2019-03-15T19:15:15.351Z,60.69
2019-03-15T19:17:43.953Z,60.61
2019-03-15T19:20:14.288Z,60.65
2019-03-15T19:22:42.964Z,60.55
2019-03-15T19:25:12.705Z,60.40
2019-03-15T19:27:41.338Z,60.52
2019-03-15T19:30:14.872Z,60.50
2019-03-15T19:32:43.688Z,60.66
2019-03-15T19:35:12.369Z,60.54
2019-03-15T19:37:41.107Z,61.03
2019-03-15T19:40:15.246Z,61.05
2019-03-15T19:42:45.479Z,61.48
2019-03-15T19:45:15.296Z,61.59
2019-03-15T19:47:44.194Z,61.51
2019-03-15T19:50:15.157Z,61.60
2019-03-15T19:52:43.786Z,61.84
2019-03-15T19:55:13.746Z,62.27
2019-03-15T19:57:42.373Z,62.46
2019-03-15T20:00:13.373Z,62.43
2019-03-15T20:02:41.906Z,62.64
2019-03-15T20:05:10.581Z,62.86
2019-03-15T20:07:39.292Z,62.90
2019-03-15T20:10:16.472Z,62.87
2019-03-15T20:12:43.919Z,63.00
2019-03-15T20:15:14.453Z,63.10
2019-03-15T20:17:43.125Z,63.15
2019-03-15T20:20:14.292Z,63.19
2019-03-15T20:22:42.850Z,63.31
2019-03-15T20:25:13.081Z,63.31
2019-03-15T20:27:41.708Z,63.46
2019-03-15T20:30:21.237Z,63.18
2019-03-15T20:32:43.446Z,63.42
2019-03-15T20:35:12.011Z,63.54
2019-03-15T20:37:40.632Z,63.52
2019-03-15T20:40:13.284Z,63.64
2019-03-15T20:42:41.850Z,63.90
2019-03-15T20:45:22.362Z,63.73
2019-03-15T20:47:50.914Z,63.14
2019-03-15T20:50:19.561Z,62.96
2019-03-15T20:52:48.225Z,62.92
2019-03-15T20:55:16.845Z,63.27
2019-03-15T20:57:45.331Z,63.50
2019-03-15T21:00:34.363Z,63.62
2019-03-15T21:02:51.980Z,63.65
2019-03-15T21:05:20.717Z,63.88
2019-03-15T21:07:49.246Z,63.93
2019-03-15T21:10:18.566Z,63.93
2019-03-15T21:12:47.313Z,63.93
2019-03-15T21:15:16.867Z,64.14
2019-03-15T21:17:45.467Z,64.13
2019-03-15T21:20:16.166Z,64.00
2019-03-15T21:22:44.861Z,64.18
2019-03-15T21:25:13.485Z,64.12
2019-03-15T21:27:52.885Z,64.72
2019-03-15T21:30:23.313Z,65.21
2019-03-15T21:32:51.879Z,65.47
2019-03-15T21:35:21.660Z,65.68
2019-03-15T21:37:50.340Z,65.85
2019-03-15T21:40:19.963Z,66.24
2019-03-15T21:42:48.444Z,66.37
2019-03-15T21:45:17.364Z,66.44
2019-03-15T21:47:45.959Z,66.59
2019-03-15T21:50:18.886Z,66.97
2019-03-15T21:52:47.479Z,67.31
2019-03-15T21:55:16.106Z,67.22
2019-03-15T21:57:44.738Z,67.22
2019-03-15T22:00:21.319Z,67.55
2019-03-15T22:02:49.881Z,67.73
2019-03-15T22:05:18.533Z,67.72
2019-03-15T22:07:47.273Z,67.75
2019-03-15T22:10:16.724Z,67.77
2019-03-15T22:12:45.475Z,67.51
2019-03-15T22:15:14.335Z,67.54
2019-03-15T22:17:43.380Z,67.59
2019-03-15T22:20:14.046Z,67.20
2019-03-15T22:22:42.716Z,67.50
2019-03-15T22:25:11.265Z,67.51
2019-03-15T22:27:39.817Z,67.34
2019-03-15T22:30:14.386Z,67.13
2019-03-15T22:32:43.023Z,67.12
2019-03-15T22:35:11.650Z,67.41
2019-03-15T22:37:40.241Z,67.60
2019-03-15T22:40:11.212Z,67.48
2019-03-15T22:42:39.848Z,67.33
2019-03-15T22:45:12.751Z,67.42
2019-03-15T22:47:41.480Z,67.59
2019-03-15T22:50:11.400Z,67.90
2019-03-15T22:52:40.081Z,67.75
2019-03-15T22:55:09.925Z,67.80
2019-03-15T22:57:38.550Z,67.68
2019-03-15T23:00:10.117Z,67.83
2019-03-15T23:02:38.734Z,67.98
2019-03-15T23:05:07.689Z,67.92
2019-03-15T23:07:36.363Z,67.57
2019-03-15T23:10:06.494Z,67.44
2019-03-15T23:12:34.984Z,67.54
2019-03-15T23:15:04.365Z,68.95
2019-03-15T23:17:33.054Z,69.95
2019-03-15T23:20:01.620Z,71.11
2019-03-15T23:22:30.202Z,70.87
2019-03-15T23:24:58.769Z,73.04
2019-03-15T23:27:27.323Z,73.99
2019-03-15T23:29:55.933Z,73.78
2019-03-15T23:32:24.568Z,74.17
2019-03-15T23:34:53.126Z,75.20
2019-03-15T23:37:21.864Z,76.14
2019-03-15T23:39:50.420Z,76.94
2019-03-15T23:42:19.048Z,77.44
2019-03-15T23:44:47.631Z,78.19
2019-03-15T23:47:16.135Z,78.21
2019-03-15T23:49:44.694Z,79.02
2019-03-15T23:52:13.331Z,79.51
2019-03-15T23:54:41.907Z,79.79
2019-03-15T23:57:10.396Z,80.79
2019-03-15T23:59:38.956Z,81.39
